Nearby METAR Reports

 

EDNY - Friedrichshafen, Germany
Distance from station: ONO 32km
aktuell: 29/01/2023 05:20
geschlossene Wolkendecke
geschlossene Wolkendecke
 Wind von ONO
Wind: ONO 6 km/h
Temperatur: 0°C
Taupunkt: -4°C
Luftfeuchte: 75%
Luftdruck: 1026 hPa
Clouds: geschlossene Wolkendecke
Visibility: 10 km
Cloud details: geschlossene Wolkendecke 792 m
2023/01/29 04:20 EDNY 290420Z AUTO 06003KT 9999 // OVC026/// M00/M04 Q1026
LSZR - Rheineck/Altenrh, Switzerland
Distance from station: OSO 37km
aktuell: 29/01/2023 05:50
geschlossene Wolkendecke
geschlossene Wolkendecke
 Wind von O
Wind: O 7 km/h
Temperatur: -2°C
Wind Chill: -6°C
Taupunkt: -4°C
Luftfeuchte: 86%
Luftdruck: 1026 hPa
Clouds: geschlossene Wolkendecke
Visibility: 10 km
Cloud details: geschlossene Wolkendecke 1036 m
2023/01/29 04:50 LSZR 290450Z AUTO 09004KT 9999 OVC034 M02/M04 Q1026
LSMD - Dubendorf, Switzerland
Distance from station: SW 40km
aktuell: 29/01/2023 05:20
geschlossene Wolkendecke
geschlossene Wolkendecke
 Wind von OSO
Wind: OSO 6 km/h
Temperatur: 0°C
Taupunkt: -4°C
Luftfeuchte: 75%
Luftdruck: 1026 hPa
Clouds: geschlossene Wolkendecke
Visibility: 10 km
Cloud details: geschlossene Wolkendecke 853 m
2023/01/29 04:20 LSMD 290420Z AUTO 11003KT 080V140 9999NDV OVC028 M00/M04 Q1026 RMK
 
LSZH - Zurich-Kloten (a, Switzerland
Distance from station: WSW 44km
aktuell: 29/01/2023 05:50
stark bewölkt
stark bewölkt
 Wind von ONO
Wind: ONO 9 km/h
Temperatur: 0°C
Wind Chill: -3°C
Taupunkt: -5°C
Luftfeuchte: 69%
Luftdruck: 1026 hPa
Clouds: stark bewölkt
Visibility: 10 km
Cloud details: stark bewölkt 701 m
2023/01/29 04:50 LSZH 290450Z 07005KT 9999 BKN023 00/M05 Q1026 NOSIG
LSME - Emmen, Switzerland
Distance from station: SW 82km
aktuell: 29/01/2023 05:20
geschlossene Wolkendecke
geschlossene Wolkendecke
 Wind von NNO
Wind: NNO 7 km/h
Temperatur: 0°C
Wind Chill: -3°C
Taupunkt: -3°C
Luftfeuchte: 80%
Luftdruck: 1026 hPa
Clouds: geschlossene Wolkendecke
Visibility: 10 km
Cloud details: geschlossene Wolkendecke 1006 m
2023/01/29 04:20 LSME 290420Z AUTO 03004KT 9999NDV OVC033 M00/M03 Q1026 RMK
LSZC - Buochs, Switzerland
Distance from station: SW 89km
aktuell: 29/01/2023 05:50
geschlossene Wolkendecke
geschlossene Wolkendecke
 Wind von calm
Wind: Windstill
Temperatur: 0°C
Taupunkt: -4°C
Luftfeuchte: 75%
Luftdruck: 1025 hPa
Clouds: geschlossene Wolkendecke
Visibility: 10 km
Cloud details: geschlossene Wolkendecke 1006 m
2023/01/29 04:50 LSZC 290450Z AUTO 00000KT 9999 OVC033 M00/M04 Q1025
 
ETHL - Laupheim (ger-Ar, Germany
Distance from station: NO 92km
aktuell: 29/01/2023 05:20

 Wind von NO
Wind: NO 4 km/h
Temperatur: -2°C
Taupunkt: -3°C
Luftfeuchte: 93%
Luftdruck: 1026 hPa
Visibility: 10 km
2023/01/29 04:20 ETHL 290420Z AUTO 04002KT 9999 // ////// M02/M03 Q1026 ///
EDJA - Memmingen Allgau, Germany
Distance from station: ONO 95km
aktuell: 29/01/2023 05:20
geschlossene Wolkendecke
geschlossene Wolkendecke
 Wind von NO
Wind: NO 9 km/h
Temperatur: -2°C
Wind Chill: -6°C
Taupunkt: -3°C
Luftfeuchte: 93%
Luftdruck: 1025 hPa
Clouds: geschlossene Wolkendecke
Visibility: 10 km
Cloud details: Few Clouds 335 m
geschlossene Wolkendecke 457 m
2023/01/29 04:20 EDJA 290420Z AUTO 04005KT 9999 // FEW011/// OVC015/// M02/M03 Q1025
LSMA - Alpnach, Switzerland
Distance from station: SW 95km
aktuell: 29/01/2023 05:20
geschlossene Wolkendecke
geschlossene Wolkendecke
 Wind von calm
Wind: Windstill
Temperatur: 0°C
Taupunkt: -4°C
Luftfeuchte: 75%
Luftdruck: 1025 hPa
Clouds: geschlossene Wolkendecke
Visibility: 10 km
Cloud details: geschlossene Wolkendecke 945 m
2023/01/29 04:20 LSMA 290420Z AUTO 00000KT 9999NDV OVC031 00/M04 Q1025 RMK